createdAt,value
2022-12-25T00:00:21.432Z,9.83
2022-12-25T00:03:09.927Z,9.76
2022-12-25T00:05:39.927Z,9.72
2022-12-25T00:08:07.964Z,9.75
2022-12-25T00:10:42.918Z,9.64
2022-12-25T00:13:13.320Z,9.62
2022-12-25T00:15:42.136Z,9.54
2022-12-25T00:18:10.300Z,9.69
2022-12-25T00:20:38.660Z,9.71
2022-12-25T00:23:07.701Z,9.76
2022-12-25T00:25:40.168Z,9.83
2022-12-25T00:28:08.238Z,9.70
2022-12-25T00:30:41.302Z,9.72
2022-12-25T00:33:09.397Z,9.73
2022-12-25T00:35:38.840Z,9.56
2022-12-25T00:38:06.939Z,9.52
2022-12-25T00:40:42.231Z,9.59
2022-12-25T00:43:10.447Z,9.53
2022-12-25T00:45:38.897Z,9.32
2022-12-25T00:48:07.848Z,9.38
2022-12-25T00:50:39.147Z,9.25
2022-12-25T00:53:07.241Z,9.28
2022-12-25T00:55:35.700Z,9.23
2022-12-25T00:58:03.867Z,9.12
2022-12-25T01:00:32.293Z,9.12
2022-12-25T01:03:01.053Z,9.08
2022-12-25T01:05:29.752Z,9.09
2022-12-25T01:07:57.857Z,9.10
2022-12-25T01:10:26.227Z,8.98
2022-12-25T01:12:54.233Z,8.92
2022-12-25T01:15:22.600Z,8.91
2022-12-25T01:17:50.980Z,8.97
2022-12-25T01:20:19.718Z,8.99
2022-12-25T01:22:47.809Z,8.87
2022-12-25T01:25:16.297Z,8.78
2022-12-25T01:27:44.449Z,8.76
2022-12-25T01:30:13.186Z,8.70
2022-12-25T01:32:41.230Z,8.64
2022-12-25T01:35:09.873Z,8.65
2022-12-25T01:37:38.080Z,8.82
2022-12-25T01:40:08.836Z,8.70
2022-12-25T01:42:36.979Z,8.72
2022-12-25T01:45:32.747Z,8.65
2022-12-25T01:48:08.547Z,8.64
2022-12-25T01:50:41.289Z,8.69
2022-12-25T01:53:09.568Z,8.55
2022-12-25T01:55:39.706Z,8.67
2022-12-25T01:58:08.796Z,8.61
2022-12-25T02:00:37.414Z,8.67
2022-12-25T02:03:06.241Z,8.63
2022-12-25T02:05:35.742Z,8.57
2022-12-25T02:08:12.377Z,8.60
2022-12-25T02:10:43.939Z,8.65
2022-12-25T02:13:18.339Z,8.53
2022-12-25T02:16:01.619Z,8.39
2022-12-25T02:18:54.580Z,8.56
2022-12-25T02:21:53.003Z,8.57
2022-12-25T02:24:56.167Z,8.53
2022-12-25T02:27:37.805Z,8.53
2022-12-25T02:30:08.894Z,8.37
2022-12-25T02:33:18.257Z,8.45
2022-12-25T02:35:52.096Z,8.44
2022-12-25T02:38:32.410Z,8.41
2022-12-25T02:41:06.491Z,8.48
2022-12-25T02:43:59.213Z,8.53
2022-12-25T02:46:49.377Z,8.54
2022-12-25T02:49:41.953Z,8.44
2022-12-25T02:52:34.628Z,8.43
2022-12-25T02:55:36.726Z,8.37
2022-12-25T02:58:28.418Z,8.38
2022-12-25T03:01:22.234Z,8.47
2022-12-25T03:04:12.908Z,8.54
2022-12-25T03:06:57.255Z,8.44
2022-12-25T03:09:47.908Z,8.39
2022-12-25T03:12:40.467Z,8.29
2022-12-25T03:15:29.637Z,8.39
2022-12-25T03:18:01.885Z,8.33
2022-12-25T03:20:50.393Z,8.22
2022-12-25T03:23:42.369Z,8.33
2022-12-25T03:26:29.045Z,8.45
2022-12-25T03:28:57.589Z,8.50
2022-12-25T03:31:53.821Z,8.48
2022-12-25T03:34:48.462Z,8.48
2022-12-25T03:37:43.279Z,8.51
2022-12-25T03:40:40.466Z,8.56
2022-12-25T03:44:15.233Z,8.68
2022-12-25T03:47:10.298Z,8.60
2022-12-25T03:50:10.012Z,8.64
2022-12-25T03:52:59.304Z,8.65
2022-12-25T03:55:46.363Z,8.72
2022-12-25T03:58:43.155Z,8.59
2022-12-25T04:01:30.350Z,8.56
2022-12-25T04:04:17.639Z,8.40
2022-12-25T04:07:04.251Z,8.47
2022-12-25T04:09:51.998Z,8.54
2022-12-25T04:12:38.604Z,8.60
2022-12-25T04:15:26.227Z,8.44
2022-12-25T04:18:12.856Z,8.61
2022-12-25T04:21:00.707Z,8.51
2022-12-25T04:23:47.110Z,8.51
2022-12-25T04:26:33.788Z,8.40
2022-12-25T04:29:20.320Z,8.44
2022-12-25T04:32:07.257Z,8.59
2022-12-25T04:34:53.760Z,8.60
2022-12-25T04:37:23.188Z,8.62
2022-12-25T04:39:51.100Z,8.73
2022-12-25T04:42:19.398Z,8.88
2022-12-25T04:44:47.247Z,8.74
2022-12-25T04:47:15.418Z,8.91
2022-12-25T04:49:43.312Z,8.80
2022-12-25T04:52:11.610Z,8.80
2022-12-25T04:54:39.659Z,8.81
2022-12-25T04:57:08.058Z,8.58
2022-12-25T04:59:36.332Z,8.72
2022-12-25T05:02:04.682Z,8.62
2022-12-25T05:04:32.894Z,8.60
2022-12-25T05:07:01.132Z,8.43
2022-12-25T05:09:29.191Z,8.64
2022-12-25T05:11:58.679Z,8.57
2022-12-25T05:14:26.619Z,8.52
2022-12-25T05:16:54.777Z,8.40
2022-12-25T05:19:22.547Z,8.55
2022-12-25T05:21:50.738Z,8.51
2022-12-25T05:24:18.559Z,8.35
2022-12-25T05:26:46.756Z,8.36
2022-12-25T05:29:14.637Z,8.32
2022-12-25T05:31:42.844Z,8.53
2022-12-25T05:34:11.370Z,8.47
2022-12-25T05:36:39.700Z,8.44
2022-12-25T05:39:07.614Z,8.47
2022-12-25T05:41:35.858Z,8.51
2022-12-25T05:44:04.520Z,8.59
2022-12-25T05:46:34.057Z,8.69
2022-12-25T05:49:02.108Z,8.61
2022-12-25T05:51:32.013Z,8.52
2022-12-25T05:54:00.005Z,8.60
2022-12-25T05:56:29.451Z,8.67
2022-12-25T05:58:57.551Z,8.68
2022-12-25T06:01:27.698Z,8.56
2022-12-25T06:03:57.380Z,8.65
2022-12-25T06:06:25.700Z,8.63
2022-12-25T06:08:55.404Z,8.73
2022-12-25T06:11:23.887Z,8.83
2022-12-25T06:13:53.206Z,8.64
2022-12-25T06:16:22.081Z,8.68
2022-12-25T06:18:54.702Z,8.81
2022-12-25T06:21:23.147Z,8.87
2022-12-25T06:23:51.085Z,9.01
2022-12-25T06:26:20.667Z,9.07
2022-12-25T06:28:48.883Z,9.09
2022-12-25T06:31:20.568Z,9.06
2022-12-25T06:33:49.225Z,8.90
2022-12-25T06:36:28.337Z,9.04
2022-12-25T06:38:57.064Z,8.86
2022-12-25T06:41:28.727Z,8.99
2022-12-25T06:43:59.466Z,8.95
2022-12-25T06:46:30.405Z,9.07
2022-12-25T06:49:00.099Z,9.16
2022-12-25T06:51:30.734Z,8.90
2022-12-25T06:54:04.359Z,8.75
2022-12-25T06:56:34.069Z,8.85
2022-12-25T06:59:08.688Z,8.93
2022-12-25T07:01:57.728Z,9.08
2022-12-25T07:04:28.566Z,9.24
2022-12-25T07:06:56.725Z,9.18
2022-12-25T07:09:25.246Z,9.00
2022-12-25T07:11:54.748Z,9.15
2022-12-25T07:14:24.726Z,9.03
2022-12-25T07:16:53.136Z,9.34
2022-12-25T07:19:21.025Z,9.43
2022-12-25T07:21:49.259Z,9.48
2022-12-25T07:24:21.801Z,9.30
2022-12-25T07:26:51.186Z,9.27
2022-12-25T07:29:19.912Z,9.43
2022-12-25T07:31:49.667Z,9.25
2022-12-25T07:34:18.472Z,9.34
2022-12-25T07:36:46.926Z,9.65
2022-12-25T07:39:14.886Z,9.70
2022-12-25T07:41:44.717Z,9.61
2022-12-25T07:44:16.916Z,9.79
2022-12-25T07:46:45.490Z,9.66
2022-12-25T07:49:13.648Z,9.65
2022-12-25T07:51:41.977Z,9.68
2022-12-25T07:54:09.786Z,9.77
2022-12-25T07:56:37.975Z,9.68
2022-12-25T07:59:05.806Z,9.92
2022-12-25T08:01:34.280Z,9.70
2022-12-25T08:04:03.207Z,9.71
2022-12-25T08:06:35.100Z,9.98
2022-12-25T08:09:12.006Z,10.13
2022-12-25T08:11:44.859Z,10.22
2022-12-25T08:14:12.747Z,10.18
2022-12-25T08:16:42.965Z,10.07
2022-12-25T08:19:12.987Z,10.06
2022-12-25T08:21:41.094Z,9.93
2022-12-25T08:24:09.146Z,10.27
2022-12-25T08:26:38.289Z,10.23
2022-12-25T08:29:06.207Z,10.17
2022-12-25T08:31:39.453Z,10.32
2022-12-25T08:34:12.088Z,10.39
2022-12-25T08:36:41.920Z,10.30
2022-12-25T08:39:09.749Z,10.41
2022-12-25T08:41:38.133Z,10.47
2022-12-25T08:44:07.055Z,10.54
2022-12-25T08:46:37.222Z,10.83
2022-12-25T08:49:05.336Z,10.94
2022-12-25T08:51:34.709Z,10.76
2022-12-25T08:54:02.542Z,10.78
2022-12-25T08:56:30.968Z,10.95
2022-12-25T08:58:58.886Z,11.14
2022-12-25T09:01:27.310Z,10.88
2022-12-25T09:03:55.297Z,10.99
2022-12-25T09:06:23.616Z,10.92
2022-12-25T09:08:51.432Z,11.05
2022-12-25T09:11:21.699Z,10.97
2022-12-25T09:13:50.229Z,11.19
2022-12-25T09:16:21.877Z,11.37
2022-12-25T09:18:50.575Z,11.37
2022-12-25T09:21:19.663Z,11.23
2022-12-25T09:23:47.769Z,11.43
2022-12-25T09:26:18.504Z,11.46
2022-12-25T09:28:51.780Z,11.47
2022-12-25T09:31:22.988Z,11.70
2022-12-25T09:33:52.400Z,11.60
2022-12-25T09:36:23.799Z,11.68
2022-12-25T09:38:52.988Z,11.90
2022-12-25T09:41:40.357Z,12.04
2022-12-25T09:44:17.253Z,12.14
2022-12-25T09:47:07.127Z,12.01
2022-12-25T09:49:45.219Z,12.10
2022-12-25T09:52:51.695Z,12.34
2022-12-25T09:55:25.986Z,12.31
2022-12-25T09:58:00.859Z,12.31
2022-12-25T10:00:39.056Z,12.50
2022-12-25T10:03:36.021Z,12.56
2022-12-25T10:06:14.368Z,12.73
2022-12-25T10:08:47.765Z,12.77
2022-12-25T10:11:37.506Z,12.79
2022-12-25T10:14:30.370Z,12.87
2022-12-25T10:17:19.521Z,12.84
2022-12-25T10:20:17.983Z,12.98
2022-12-25T10:22:52.173Z,12.99
2022-12-25T10:25:25.641Z,12.99
2022-12-25T10:28:01.043Z,13.03
2022-12-25T10:30:30.032Z,13.01
2022-12-25T10:32:59.137Z,13.13
2022-12-25T10:35:29.825Z,13.16
2022-12-25T10:38:03.136Z,13.00
2022-12-25T10:40:41.225Z,13.04
2022-12-25T10:43:16.095Z,13.31
2022-12-25T10:45:49.633Z,13.27
2022-12-25T10:48:30.379Z,13.40
2022-12-25T10:50:58.834Z,13.39
2022-12-25T10:53:29.183Z,13.36
2022-12-25T10:56:04.710Z,13.28
2022-12-25T10:58:34.484Z,13.43
2022-12-25T11:01:07.426Z,13.56
2022-12-25T11:03:39.103Z,13.34
2022-12-25T11:06:21.382Z,13.60
2022-12-25T11:09:02.698Z,13.51
2022-12-25T11:11:31.544Z,13.58
2022-12-25T11:14:02.124Z,13.52
2022-12-25T11:16:40.516Z,13.67
2022-12-25T11:19:27.903Z,13.59
2022-12-25T11:22:00.215Z,13.58
2022-12-25T11:24:31.408Z,13.82
2022-12-25T11:27:06.657Z,14.13
2022-12-25T11:29:56.068Z,13.95
2022-12-25T11:32:38.123Z,14.04
2022-12-25T11:35:13.790Z,13.94
2022-12-25T11:37:52.054Z,13.75
2022-12-25T11:40:26.839Z,13.60
2022-12-25T11:43:10.943Z,13.72
2022-12-25T11:46:17.590Z,13.61
2022-12-25T11:48:56.604Z,13.86
2022-12-25T11:51:29.201Z,14.15
2022-12-25T11:54:11.854Z,13.85
2022-12-25T11:56:39.903Z,14.01
2022-12-25T11:59:18.697Z,13.83
2022-12-25T12:01:56.786Z,13.76
2022-12-25T12:04:38.534Z,13.87
2022-12-25T12:07:27.427Z,13.81
2022-12-25T12:10:57.244Z,14.01
2022-12-25T12:13:40.641Z,14.07
2022-12-25T12:16:10.487Z,14.38
2022-12-25T12:18:39.263Z,13.85
2022-12-25T12:21:24.912Z,14.38
2022-12-25T12:24:11.656Z,14.50
2022-12-25T12:26:42.847Z,14.33
2022-12-25T12:29:30.836Z,14.10
2022-12-25T12:32:05.167Z,14.55
2022-12-25T12:34:46.127Z,14.44
2022-12-25T12:37:24.998Z,14.42
2022-12-25T12:39:55.033Z,14.70
2022-12-25T12:42:32.018Z,14.41
2022-12-25T12:45:11.032Z,14.45
2022-12-25T12:47:43.296Z,14.18
2022-12-25T12:50:29.656Z,13.94
2022-12-25T12:52:58.035Z,13.83
2022-12-25T12:55:43.914Z,13.93
2022-12-25T12:58:28.639Z,13.75
2022-12-25T13:01:27.817Z,14.12
2022-12-25T13:04:14.792Z,14.00
2022-12-25T13:06:52.422Z,13.90
2022-12-25T13:09:28.002Z,13.95
2022-12-25T13:11:55.960Z,13.80
2022-12-25T13:14:25.595Z,13.75
2022-12-25T13:16:54.974Z,13.87
2022-12-25T13:19:27.059Z,13.96
2022-12-25T13:21:59.119Z,14.11
2022-12-25T13:24:30.285Z,13.98
2022-12-25T13:27:00.176Z,14.14
2022-12-25T13:29:38.030Z,13.95
2022-12-25T13:32:17.530Z,13.88
2022-12-25T13:34:47.115Z,14.02
2022-12-25T13:37:17.839Z,13.59
2022-12-25T13:39:54.934Z,13.74
2022-12-25T13:42:26.542Z,13.61
2022-12-25T13:45:18.963Z,13.66
2022-12-25T13:47:53.053Z,13.53
2022-12-25T13:50:32.857Z,13.64
2022-12-25T13:53:16.753Z,13.70
2022-12-25T13:55:50.947Z,13.72
2022-12-25T13:58:30.091Z,13.46
2022-12-25T14:01:01.621Z,13.80
2022-12-25T14:03:46.524Z,13.81
2022-12-25T14:06:30.257Z,13.80
2022-12-25T14:08:59.756Z,13.69
2022-12-25T14:11:31.497Z,13.63
2022-12-25T14:14:03.647Z,13.47
2022-12-25T14:16:32.300Z,13.72
2022-12-25T14:19:02.567Z,13.72
2022-12-25T14:21:38.570Z,13.42
2022-12-25T14:24:16.988Z,13.60
2022-12-25T14:26:46.818Z,13.78
2022-12-25T14:29:23.661Z,13.61
2022-12-25T14:32:00.947Z,13.36
2022-12-25T14:34:30.773Z,13.40
2022-12-25T14:37:00.260Z,13.60
2022-12-25T14:39:35.005Z,13.31
2022-12-25T14:42:22.892Z,13.26
2022-12-25T14:45:00.268Z,13.28
2022-12-25T14:47:28.813Z,13.25
2022-12-25T14:49:57.002Z,13.51
2022-12-25T14:52:42.791Z,13.68
2022-12-25T14:55:31.286Z,13.66
2022-12-25T14:58:07.987Z,13.59
2022-12-25T15:00:39.442Z,13.59
2022-12-25T15:03:21.563Z,13.44
2022-12-25T15:06:21.454Z,13.51
2022-12-25T15:09:06.599Z,13.45
2022-12-25T15:11:34.551Z,13.41
2022-12-25T15:14:02.766Z,13.64
2022-12-25T15:16:37.896Z,13.67
2022-12-25T15:19:10.189Z,13.69
2022-12-25T15:21:38.200Z,13.30
2022-12-25T15:24:07.489Z,13.36
2022-12-25T15:26:35.333Z,13.12
2022-12-25T15:29:03.586Z,13.22
2022-12-25T15:31:33.633Z,13.13
2022-12-25T15:34:05.246Z,13.17
2022-12-25T15:36:34.349Z,13.32
2022-12-25T15:39:03.901Z,13.19
2022-12-25T15:41:55.599Z,13.24
2022-12-25T15:44:24.728Z,13.38
2022-12-25T15:46:52.803Z,13.48
2022-12-25T15:49:21.400Z,13.50
2022-12-25T15:51:49.229Z,13.60
2022-12-25T15:54:19.110Z,13.67
2022-12-25T15:56:51.100Z,13.54
2022-12-25T15:59:20.619Z,13.54
2022-12-25T16:01:58.180Z,13.53
2022-12-25T16:04:28.394Z,13.46
2022-12-25T16:06:56.949Z,13.49
2022-12-25T16:09:25.380Z,13.43
2022-12-25T16:11:53.264Z,13.44
2022-12-25T16:14:22.019Z,13.34
2022-12-25T16:16:49.937Z,13.40
2022-12-25T16:19:18.957Z,13.41
2022-12-25T16:21:47.662Z,13.28
2022-12-25T16:24:16.375Z,13.36
2022-12-25T16:26:44.593Z,13.38
2022-12-25T16:29:14.530Z,13.40
2022-12-25T16:31:42.567Z,13.38
2022-12-25T16:34:11.970Z,13.37
2022-12-25T16:36:40.193Z,13.27
2022-12-25T16:39:08.550Z,13.39
2022-12-25T16:41:36.457Z,13.30
2022-12-25T16:44:11.316Z,13.46
2022-12-25T16:46:40.273Z,13.42
2022-12-25T16:49:08.959Z,13.41
2022-12-25T16:51:36.998Z,13.51
2022-12-25T16:54:06.785Z,13.39
2022-12-25T16:56:36.886Z,13.34
2022-12-25T16:59:05.155Z,13.30
2022-12-25T17:01:33.164Z,13.29
2022-12-25T17:04:02.958Z,13.26
2022-12-25T17:06:31.930Z,13.35
2022-12-25T17:09:02.407Z,13.26
2022-12-25T17:11:31.576Z,13.28
2022-12-25T17:14:03.011Z,13.30
2022-12-25T17:16:34.325Z,13.31
2022-12-25T17:19:08.317Z,13.32
2022-12-25T17:21:38.496Z,13.25
2022-12-25T17:24:07.310Z,13.38
2022-12-25T17:26:35.458Z,13.27
2022-12-25T17:29:04.691Z,13.34
2022-12-25T17:31:32.707Z,13.26
2022-12-25T17:34:03.147Z,13.26
2022-12-25T17:36:31.947Z,13.17
2022-12-25T17:39:01.499Z,13.21
2022-12-25T17:41:29.499Z,13.19
2022-12-25T17:43:57.713Z,13.28
2022-12-25T17:46:29.240Z,13.07
2022-12-25T17:48:59.237Z,13.22
2022-12-25T17:51:29.282Z,13.11
2022-12-25T17:54:03.416Z,13.11
2022-12-25T17:56:33.317Z,13.11
2022-12-25T17:59:08.300Z,13.10
2022-12-25T18:01:38.740Z,13.10
2022-12-25T18:04:07.433Z,13.13
2022-12-25T18:06:36.605Z,13.18
2022-12-25T18:09:06.532Z,13.16
2022-12-25T18:11:37.794Z,13.14
2022-12-25T18:14:08.235Z,13.14
2022-12-25T18:16:38.567Z,13.19
2022-12-25T18:19:07.196Z,13.12
2022-12-25T18:21:35.762Z,13.02
2022-12-25T18:24:05.964Z,12.89
2022-12-25T18:26:34.393Z,12.89
2022-12-25T18:29:03.417Z,13.05
2022-12-25T18:31:32.041Z,12.96
2022-12-25T18:34:00.420Z,12.97
2022-12-25T18:36:30.180Z,13.01
2022-12-25T18:38:58.907Z,13.09
2022-12-25T18:41:28.907Z,13.13
2022-12-25T18:44:11.507Z,13.00
2022-12-25T18:46:39.632Z,12.95
2022-12-25T18:49:07.465Z,13.09
2022-12-25T18:51:37.243Z,13.06
2022-12-25T18:54:05.156Z,13.05
2022-12-25T18:56:34.305Z,13.12
2022-12-25T18:59:02.389Z,13.02
2022-12-25T19:01:30.612Z,13.13
2022-12-25T19:04:04.401Z,12.98
2022-12-25T19:06:33.812Z,12.88
2022-12-25T19:09:08.953Z,12.81
2022-12-25T19:11:45.883Z,12.76
2022-12-25T19:14:15.410Z,12.86
2022-12-25T19:16:43.708Z,12.84
2022-12-25T19:19:12.223Z,13.02
2022-12-25T19:21:41.099Z,12.91
2022-12-25T19:24:09.130Z,13.03
2022-12-25T19:26:37.855Z,12.88
2022-12-25T19:29:05.726Z,12.73
2022-12-25T19:31:34.353Z,12.77
2022-12-25T19:34:02.779Z,12.67
2022-12-25T19:36:31.313Z,12.70
2022-12-25T19:38:59.042Z,12.71
2022-12-25T19:41:27.244Z,12.65
2022-12-25T19:43:54.992Z,12.36
2022-12-25T19:46:26.800Z,12.42
2022-12-25T19:48:56.127Z,12.42
2022-12-25T19:51:26.915Z,12.36
2022-12-25T19:53:58.993Z,12.27
2022-12-25T19:56:28.454Z,12.13
2022-12-25T19:58:57.531Z,12.46
2022-12-25T20:01:28.165Z,12.41
2022-12-25T20:03:56.136Z,12.67
2022-12-25T20:06:33.016Z,12.58
2022-12-25T20:09:08.069Z,12.51
2022-12-25T20:11:37.201Z,12.12
2022-12-25T20:14:06.924Z,12.32
2022-12-25T20:16:37.444Z,12.38
2022-12-25T20:19:06.054Z,12.42
2022-12-25T20:21:35.306Z,12.44
2022-12-25T20:24:03.742Z,12.46
2022-12-25T20:26:33.180Z,12.36
2022-12-25T20:29:01.024Z,12.44
2022-12-25T20:31:34.354Z,12.46
2022-12-25T20:34:10.573Z,12.60
2022-12-25T20:36:38.789Z,12.54
2022-12-25T20:39:10.050Z,12.36
2022-12-25T20:41:40.715Z,12.51
2022-12-25T20:44:10.421Z,12.39
2022-12-25T20:46:38.974Z,12.36
2022-12-25T20:49:06.910Z,12.29
2022-12-25T20:51:35.613Z,12.07
2022-12-25T20:54:07.595Z,12.13
2022-12-25T20:56:36.900Z,11.99
2022-12-25T20:59:04.892Z,12.01
2022-12-25T21:01:33.172Z,11.95
2022-12-25T21:04:01.052Z,12.09
2022-12-25T21:06:29.799Z,12.25
2022-12-25T21:08:57.631Z,12.23
2022-12-25T21:11:25.996Z,12.25
2022-12-25T21:13:53.825Z,12.23
2022-12-25T21:16:25.382Z,12.14
2022-12-25T21:18:54.148Z,12.21
2022-12-25T21:21:22.871Z,12.31
2022-12-25T21:23:50.962Z,12.36
2022-12-25T21:26:25.302Z,12.39
2022-12-25T21:28:57.623Z,12.40
2022-12-25T21:31:26.349Z,12.01
2022-12-25T21:33:55.856Z,12.31
2022-12-25T21:36:23.903Z,12.24
2022-12-25T21:38:58.520Z,12.23
2022-12-25T21:41:28.892Z,12.29
2022-12-25T21:43:57.165Z,12.33
2022-12-25T21:46:26.380Z,12.03
2022-12-25T21:48:54.568Z,12.21
2022-12-25T21:51:46.054Z,11.90
2022-12-25T21:54:15.901Z,12.15
2022-12-25T21:56:47.419Z,12.16
2022-12-25T21:59:18.795Z,12.16
2022-12-25T22:01:49.848Z,12.27
2022-12-25T22:04:19.691Z,12.30
2022-12-25T22:07:07.472Z,12.13
2022-12-25T22:09:35.820Z,12.11
2022-12-25T22:12:23.776Z,12.19
2022-12-25T22:14:56.304Z,12.25
2022-12-25T22:17:47.355Z,12.49
2022-12-25T22:20:22.780Z,12.43
2022-12-25T22:22:51.258Z,12.35
2022-12-25T22:25:20.625Z,12.43
2022-12-25T22:27:50.756Z,12.32
2022-12-25T22:30:21.934Z,12.32
2022-12-25T22:32:50.690Z,12.23
2022-12-25T22:35:19.470Z,12.15
2022-12-25T22:37:49.928Z,12.21
2022-12-25T22:40:19.609Z,12.29
2022-12-25T22:42:48.927Z,12.29
2022-12-25T22:45:17.241Z,12.32
2022-12-25T22:47:45.567Z,12.34
2022-12-25T22:50:15.358Z,12.20
2022-12-25T22:52:46.087Z,12.16
2022-12-25T22:55:18.601Z,12.22
2022-12-25T22:57:47.098Z,12.40
2022-12-25T23:00:14.949Z,12.30
2022-12-25T23:02:43.445Z,12.28
2022-12-25T23:05:11.378Z,12.54
2022-12-25T23:07:40.818Z,12.58
2022-12-25T23:10:09.561Z,12.44
2022-12-25T23:12:57.108Z,12.31
2022-12-25T23:15:25.040Z,12.27
2022-12-25T23:18:11.890Z,12.18
2022-12-25T23:20:58.633Z,12.27
2022-12-25T23:23:46.269Z,12.29
2022-12-25T23:26:17.321Z,12.34
2022-12-25T23:29:04.554Z,12.33
2022-12-25T23:31:37.051Z,12.29
2022-12-25T23:34:06.224Z,12.19
2022-12-25T23:36:34.964Z,12.20
2022-12-25T23:39:09.643Z,12.22
2022-12-25T23:41:40.474Z,12.12
2022-12-25T23:44:12.176Z,11.98
2022-12-25T23:46:41.899Z,11.97
2022-12-25T23:49:23.972Z,11.96
2022-12-25T23:51:52.273Z,11.84
2022-12-25T23:54:25.054Z,11.82
2022-12-25T23:56:54.717Z,12.06
2022-12-25T23:59:23.404Z,11.98
